Time;durP1;ratioP1;P1;durP2;ratioP2;P2;SDS_P1;SDS_P2;PMS_P1;PMS_P2;Temp;Humidity;BMP_temperature;BMP_pressure;BME280_temperature;BME280_humidity;BME280_pressure;Samples;Min_cycle;Max_cycle;Signal;HPM_P1;HPM_P2
2023/03/10 00:01:14;;;;;;;13.83;12.53;;;7.60;99.90;;;;;;5103315;27;20420;-46
2023/03/10 00:03:40;;;;;;;14.07;12.67;;;7.70;99.90;;;;;;5110355;27;20497;-43
2023/03/10 00:06:08;;;;;;;13.40;12.13;;;7.60;99.90;;;;;;5087742;27;20421;-42
2023/03/10 00:08:34;;;;;;;14.70;13.20;;;7.70;99.90;;;;;;5114196;27;20447;-44
2023/03/10 00:11:00;;;;;;;13.27;11.97;;;7.70;99.90;;;;;;5119391;27;20514;-45
2023/03/10 00:13:26;;;;;;;14.20;12.70;;;7.60;99.90;;;;;;5120094;27;20437;-47
2023/03/10 00:15:52;;;;;;;14.33;13.07;;;7.60;99.90;;;;;;5112359;27;20483;-44
2023/03/10 00:18:18;;;;;;;17.17;13.03;;;7.60;99.90;;;;;;5117621;27;20538;-47
2023/03/10 00:20:43;;;;;;;15.07;13.67;;;7.60;99.90;;;;;;5109609;27;20193;-43
2023/03/10 00:23:09;;;;;;;14.43;12.93;;;7.60;99.90;;;;;;5119041;27;20485;-48
2023/03/10 00:25:35;;;;;;;13.00;11.87;;;7.70;99.90;;;;;;5118767;27;20183;-46
2023/03/10 00:28:00;;;;;;;14.27;13.10;;;7.70;99.90;;;;;;5107497;28;20219;-42
2023/03/10 00:30:28;;;;;;;12.80;11.80;;;7.60;99.90;;;;;;5107445;28;20188;-48
2023/03/10 00:32:53;;;;;;;13.23;12.30;;;7.70;99.90;;;;;;5112353;28;20185;-47
2023/03/10 00:35:19;;;;;;;13.10;12.07;;;7.80;99.90;;;;;;5118607;28;20800;-47
2023/03/10 00:37:45;;;;;;;13.17;12.00;;;7.70;99.90;;;;;;5119965;28;20375;-45
2023/03/10 00:40:14;;;;;;;12.00;11.20;;;7.80;99.90;;;;;;5118315;28;20181;-48
2023/03/10 00:42:40;;;;;;;13.00;11.80;;;7.80;99.90;;;;;;5119439;28;20197;-47
2023/03/10 00:45:06;;;;;;;12.53;11.43;;;7.70;99.90;;;;;;5118925;28;20861;-48
2023/03/10 00:47:32;;;;;;;12.90;11.77;;;7.80;99.90;;;;;;5108201;28;20527;-45
2023/03/10 00:49:58;;;;;;;11.93;10.90;;;7.90;99.90;;;;;;5118723;28;20415;-43
2023/03/10 00:52:24;;;;;;;12.53;11.40;;;7.90;99.90;;;;;;5099994;28;20650;-45
2023/03/10 00:54:50;;;;;;;12.53;11.37;;;7.90;99.90;;;;;;5120004;28;20439;-47
2023/03/10 00:57:17;;;;;;;12.10;11.20;;;7.90;99.90;;;;;;5092432;28;20179;-47
2023/03/10 00:59:42;;;;;;;13.00;11.07;;;7.90;99.90;;;;;;5100029;28;20474;-48
2023/03/10 01:02:08;;;;;;;12.00;11.00;;;7.90;99.90;;;;;;5110688;27;20433;-46
2023/03/10 01:04:34;;;;;;;12.33;11.03;;;7.90;99.90;;;;;;5119622;27;20548;-43
2023/03/10 01:06:59;;;;;;;12.37;11.17;;;7.90;99.90;;;;;;5119002;27;20712;-43
2023/03/10 01:09:25;;;;;;;12.90;11.50;;;7.90;99.90;;;;;;5123199;27;20389;-46
2023/03/10 01:11:51;;;;;;;12.03;10.93;;;8.00;99.90;;;;;;5119966;27;20212;-43
2023/03/10 01:14:17;;;;;;;12.10;11.30;;;8.00;99.90;;;;;;5121595;27;20963;-47
2023/03/10 01:16:43;;;;;;;12.03;10.87;;;8.00;99.90;;;;;;5123046;27;20729;-46
2023/03/10 01:19:09;;;;;;;12.67;11.50;;;8.00;99.90;;;;;;5123537;27;20760;-45
2023/03/10 01:21:36;;;;;;;12.73;11.67;;;8.10;99.90;;;;;;5116443;27;20182;-42
2023/03/10 01:24:02;;;;;;;13.07;12.00;;;8.10;99.90;;;;;;5123138;27;20559;-45
2023/03/10 01:26:29;;;;;;;12.87;11.77;;;8.20;99.90;;;;;;5112454;27;20429;-47
2023/03/10 01:28:54;;;;;;;13.10;12.00;;;8.20;99.90;;;;;;5123206;27;20549;-47
2023/03/10 01:31:20;;;;;;;12.67;11.80;;;8.30;99.90;;;;;;5112657;27;20433;-45
2023/03/10 01:33:46;;;;;;;13.63;12.50;;;8.30;99.90;;;;;;5122796;27;20178;-44
2023/03/10 01:36:15;;;;;;;14.00;13.00;;;8.30;99.90;;;;;;5122077;27;20710;-45
2023/03/10 01:38:42;;;;;;;13.77;12.87;;;8.40;99.90;;;;;;5119984;27;20183;-46
2023/03/10 01:41:08;;;;;;;13.37;12.57;;;8.40;99.90;;;;;;5119034;27;20433;-49
2023/03/10 01:43:49;;;;;;;13.73;12.73;;;8.40;99.90;;;;;;5117456;27;20473;-46
2023/03/10 01:46:21;;;;;;;14.60;13.50;;;8.50;99.90;;;;;;5122754;27;20426;-44
2023/03/10 01:48:47;;;;;;;14.33;13.40;;;8.50;99.90;;;;;;5120065;27;20443;-47
2023/03/10 01:51:12;;;;;;;14.50;13.60;;;8.50;99.90;;;;;;5122475;27;20411;-43
2023/03/10 01:53:38;;;;;;;14.47;13.57;;;8.50;99.90;;;;;;5112633;27;20903;-41
2023/03/10 01:56:05;;;;;;;14.77;13.77;;;8.50;99.90;;;;;;5113732;27;20667;-43
2023/03/10 01:58:36;;;;;;;14.97;14.00;;;8.50;99.90;;;;;;5112568;27;20898;-48
2023/03/10 02:01:02;;;;;;;14.97;13.70;;;8.50;99.90;;;;;;5103027;27;20961;-45
2023/03/10 02:03:34;;;;;;;14.83;13.67;;;8.50;99.90;;;;;;5105618;27;20471;-46
2023/03/10 02:06:12;;;;;;;16.53;15.30;;;8.50;99.90;;;;;;5121438;27;20918;-45
2023/03/10 02:08:44;;;;;;;16.90;15.60;;;8.60;99.90;;;;;;5108655;27;20429;-44
2023/03/10 02:11:10;;;;;;;17.23;15.97;;;8.60;99.90;;;;;;5102257;27;20465;-46
2023/03/10 02:13:36;;;;;;;17.70;16.20;;;8.60;99.90;;;;;;5116298;27;20415;-46
2023/03/10 02:16:02;;;;;;;17.83;16.30;;;8.60;99.90;;;;;;5110361;27;20417;-43
2023/03/10 02:18:29;;;;;;;17.90;16.53;;;8.60;99.90;;;;;;5114717;27;20187;-44
2023/03/10 02:21:18;;;;;;;17.87;16.63;;;8.70;99.90;;;;;;5105683;27;20182;-47
2023/03/10 02:24:06;;;;;;;20.20;18.40;;;8.70;99.90;;;;;;5115927;27;20472;-46
2023/03/10 02:26:43;;;;;;;19.33;17.97;;;8.70;99.90;;;;;;5112255;27;20793;-45
2023/03/10 02:29:17;;;;;;;19.80;18.10;;;8.70;99.90;;;;;;5112407;27;20522;-46
2023/03/10 02:31:44;;;;;;;19.20;17.47;;;8.80;99.90;;;;;;5121930;27;20408;-46
2023/03/10 02:34:11;;;;;;;19.30;17.53;;;8.80;99.90;;;;;;5120936;27;20432;-47
2023/03/10 02:36:37;;;;;;;19.17;17.50;;;8.80;99.90;;;;;;5121876;27;21272;-46
2023/03/10 02:39:03;;;;;;;19.13;17.47;;;8.80;99.90;;;;;;5116931;27;20428;-44
2023/03/10 02:41:32;;;;;;;17.50;15.90;;;8.80;99.90;;;;;;5108450;27;20179;-46
2023/03/10 02:44:00;;;;;;;17.97;16.50;;;8.80;99.90;;;;;;5117034;27;20457;-45
2023/03/10 02:46:27;;;;;;;18.00;16.50;;;8.90;99.90;;;;;;5120139;27;20424;-48
2023/03/10 02:48:53;;;;;;;16.87;15.60;;;8.90;99.90;;;;;;5112055;27;20465;-45
2023/03/10 02:51:26;;;;;;;16.73;15.50;;;9.00;99.90;;;;;;5119673;27;21096;-44
2023/03/10 02:53:51;;;;;;;17.40;16.00;;;9.00;99.90;;;;;;5120235;27;20214;-43
2023/03/10 02:56:17;;;;;;;17.03;15.57;;;8.90;99.90;;;;;;5117965;27;20528;-44
2023/03/10 02:58:43;;;;;;;16.73;15.40;;;9.00;99.90;;;;;;5116702;27;20561;-47
2023/03/10 03:01:09;;;;;;;17.03;15.57;;;9.00;99.90;;;;;;5120664;27;20550;-44
2023/03/10 03:03:34;;;;;;;14.73;13.53;;;9.00;99.90;;;;;;5116781;27;20221;-45
2023/03/10 03:06:00;;;;;;;13.87;12.97;;;9.00;99.90;;;;;;5114383;27;20183;-47
2023/03/10 03:08:26;;;;;;;15.00;14.00;;;9.00;99.90;;;;;;5120437;27;20747;-44
2023/03/10 03:10:52;;;;;;;15.70;14.60;;;9.00;99.90;;;;;;5120853;27;20208;-43
2023/03/10 03:13:18;;;;;;;15.10;13.87;;;9.00;99.90;;;;;;5120260;27;20448;-46
2023/03/10 03:15:44;;;;;;;14.77;13.67;;;9.00;99.90;;;;;;5118555;27;20175;-46
2023/03/10 03:18:09;;;;;;;15.03;13.97;;;9.00;99.90;;;;;;5121116;27;20424;-48
2023/03/10 03:20:37;;;;;;;15.20;14.20;;;9.00;99.90;;;;;;5114258;27;20242;-45
2023/03/10 03:23:03;;;;;;;14.77;13.57;;;9.00;99.90;;;;;;5120161;27;20231;-47
2023/03/10 03:25:29;;;;;;;15.20;14.10;;;8.90;99.90;;;;;;5119352;27;20952;-45
2023/03/10 03:27:56;;;;;;;15.60;14.30;;;9.00;99.90;;;;;;5120905;27;20417;-43
2023/03/10 03:30:24;;;;;;;15.50;14.40;;;8.90;99.90;;;;;;5114617;27;20994;-42
2023/03/10 03:32:50;;;;;;;15.87;14.80;;;8.90;99.90;;;;;;5120607;27;20876;-51
2023/03/10 03:35:28;;;;;;;14.73;13.73;;;8.90;99.90;;;;;;5115575;27;20472;-44
2023/03/10 03:37:54;;;;;;;15.57;14.57;;;8.90;99.90;;;;;;5120287;27;20408;-44
2023/03/10 03:40:21;;;;;;;15.70;14.60;;;8.80;99.90;;;;;;5107660;27;20432;-45
2023/03/10 03:42:50;;;;;;;15.20;14.00;;;8.80;99.90;;;;;;5118479;27;20412;-46
2023/03/10 03:45:18;;;;;;;14.63;13.67;;;8.80;99.90;;;;;;5120326;27;20721;-43
2023/03/10 03:47:44;;;;;;;15.83;14.57;;;8.90;99.90;;;;;;5116816;27;20433;-44
2023/03/10 03:50:12;;;;;;;16.87;15.47;;;8.90;99.90;;;;;;5107634;27;20423;-45
2023/03/10 03:52:38;;;;;;;16.53;15.33;;;8.90;99.90;;;;;;5119878;27;20417;-44
2023/03/10 03:55:04;;;;;;;18.30;16.80;;;8.90;99.90;;;;;;5107315;27;20439;-43
2023/03/10 03:57:30;;;;;;;17.40;16.10;;;8.90;99.90;;;;;;5113951;27;20901;-45
2023/03/10 03:59:56;;;;;;;17.87;16.37;;;8.90;99.90;;;;;;5102638;27;20442;-49
2023/03/10 04:02:21;;;;;;;18.70;17.03;;;8.90;99.90;;;;;;5120095;27;20286;-43
2023/03/10 04:04:47;;;;;;;17.50;16.10;;;8.90;99.90;;;;;;5113284;27;20209;-48
2023/03/10 04:07:13;;;;;;;17.67;16.30;;;8.90;99.90;;;;;;5119848;27;20235;-46
2023/03/10 04:09:40;;;;;;;17.70;16.20;;;8.90;99.90;;;;;;5115224;27;20240;-42
2023/03/10 04:12:06;;;;;;;17.70;16.20;;;8.90;99.90;;;;;;5107496;27;20918;-43
2023/03/10 04:14:32;;;;;;;19.00;17.43;;;8.90;99.90;;;;;;5119098;27;21278;-47
2023/03/10 04:16:58;;;;;;;17.47;16.10;;;8.80;99.90;;;;;;5120062;27;20419;-47
2023/03/10 04:19:23;;;;;;;16.37;15.07;;;8.80;99.90;;;;;;5108910;27;20292;-46
2023/03/10 04:21:49;;;;;;;17.57;16.17;;;8.80;99.90;;;;;;5106884;27;20245;-45
2023/03/10 04:24:15;;;;;;;17.50;16.00;;;8.80;99.90;;;;;;5118929;27;20234;-45
2023/03/10 04:26:40;;;;;;;17.70;16.20;;;8.80;99.90;;;;;;5114380;27;20546;-44
2023/03/10 04:29:06;;;;;;;15.90;14.70;;;8.80;99.90;;;;;;5112398;27;20187;-43
2023/03/10 04:31:32;;;;;;;17.13;15.67;;;8.80;99.90;;;;;;5114692;28;20198;-45
2023/03/10 04:33:57;;;;;;;16.70;15.27;;;8.80;99.90;;;;;;5119132;28;20291;-45
2023/03/10 04:36:23;;;;;;;16.43;15.03;;;8.80;99.90;;;;;;5119248;27;20206;-43
2023/03/10 04:38:48;;;;;;;16.23;15.03;;;8.90;99.90;;;;;;5116284;28;20209;-48
2023/03/10 04:41:14;;;;;;;15.87;14.77;;;8.90;99.90;;;;;;5114599;28;20228;-44
2023/03/10 04:43:40;;;;;;;15.70;14.60;;;8.90;99.90;;;;;;5111300;28;20321;-49
2023/03/10 04:46:06;;;;;;;15.67;14.37;;;8.90;99.90;;;;;;5119980;28;20412;-47
2023/03/10 04:48:32;;;;;;;15.93;14.73;;;8.90;99.90;;;;;;5109888;28;20876;-47
2023/03/10 04:51:05;;;;;;;14.87;13.87;;;8.90;99.90;;;;;;5109389;28;20457;-46
2023/03/10 04:53:31;;;;;;;14.33;13.13;;;8.90;99.90;;;;;;5112992;28;20527;-46
2023/03/10 04:55:58;;;;;;;15.10;13.80;;;9.00;99.90;;;;;;5119431;28;20516;-50
2023/03/10 04:58:24;;;;;;;14.00;13.00;;;9.00;99.90;;;;;;5106417;28;20436;-46
2023/03/10 05:00:50;;;;;;;14.43;13.33;;;9.00;99.90;;;;;;5102727;28;20413;-45
2023/03/10 05:03:16;;;;;;;14.20;13.20;;;9.00;99.90;;;;;;5115075;28;20471;-48
2023/03/10 05:05:42;;;;;;;13.70;12.60;;;9.00;99.90;;;;;;5119210;28;20456;-45
2023/03/10 05:08:08;;;;;;;14.70;13.50;;;9.10;99.90;;;;;;5108828;28;20257;-44
2023/03/10 05:10:34;;;;;;;14.53;13.53;;;9.10;99.90;;;;;;5114022;28;20417;-46
2023/03/10 05:13:00;;;;;;;13.73;12.83;;;9.10;99.90;;;;;;5114599;28;20459;-47
2023/03/10 05:15:26;;;;;;;12.50;11.70;;;9.10;99.90;;;;;;5115703;28;20424;-49
2023/03/10 05:17:52;;;;;;;13.30;12.40;;;9.20;99.90;;;;;;5115869;28;21926;-46
2023/03/10 05:20:18;;;;;;;13.17;12.30;;;9.10;99.90;;;;;;5114935;28;20770;-44
2023/03/10 05:22:44;;;;;;;12.90;12.00;;;9.10;99.90;;;;;;5115759;28;20249;-42
2023/03/10 05:25:11;;;;;;;12.77;11.87;;;9.20;99.90;;;;;;5119161;28;20460;-45
2023/03/10 05:27:37;;;;;;;12.40;11.50;;;9.10;99.90;;;;;;5117003;28;20424;-45
2023/03/10 05:30:09;;;;;;;12.73;11.77;;;9.10;99.90;;;;;;5112493;28;20521;-46
2023/03/10 05:32:35;;;;;;;13.20;12.30;;;9.20;99.90;;;;;;5110269;28;20931;-48
2023/03/10 05:35:02;;;;;;;12.50;11.70;;;9.20;99.90;;;;;;5097200;28;20430;-44
2023/03/10 05:37:28;;;;;;;11.90;11.13;;;9.30;99.90;;;;;;5109972;28;20444;-46
2023/03/10 05:39:54;;;;;;;11.30;10.57;;;9.30;99.90;;;;;;5119448;28;20935;-46
2023/03/10 05:42:20;;;;;;;13.17;12.20;;;9.40;99.90;;;;;;5115596;28;20633;-45
2023/03/10 05:44:46;;;;;;;12.30;11.60;;;9.40;99.90;;;;;;5119417;28;20227;-46
2023/03/10 05:47:12;;;;;;;14.30;13.40;;;9.40;99.90;;;;;;5114332;27;20429;-46
2023/03/10 05:49:38;;;;;;;16.70;15.30;;;9.40;99.90;;;;;;5113674;27;20180;-46
2023/03/10 05:52:05;;;;;;;17.67;16.07;;;9.40;99.90;;;;;;5116234;27;20428;-44
2023/03/10 05:54:31;;;;;;;38.07;28.40;;;9.40;99.90;;;;;;5120225;27;20424;-46
2023/03/10 05:56:56;;;;;;;13.07;12.23;;;9.40;99.90;;;;;;5117543;27;20433;-47
2023/03/10 05:59:22;;;;;;;13.07;12.17;;;9.30;99.90;;;;;;5100317;28;20311;-45
2023/03/10 06:01:48;;;;;;;12.20;11.30;;;9.30;99.90;;;;;;5112697;27;20503;-42
2023/03/10 06:04:13;;;;;;;12.67;11.87;;;9.30;99.90;;;;;;5106312;27;20249;-46
2023/03/10 06:06:39;;;;;;;12.47;11.73;;;9.20;99.90;;;;;;5112858;27;20175;-47
2023/03/10 06:09:05;;;;;;;13.73;12.87;;;9.20;99.90;;;;;;5108122;27;20237;-43
2023/03/10 06:11:32;;;;;;;12.30;11.30;;;9.20;99.90;;;;;;5115248;27;20533;-44
2023/03/10 06:13:57;;;;;;;11.73;10.87;;;9.20;99.90;;;;;;5112019;27;20217;-47
2023/03/10 06:16:24;;;;;;;11.00;10.20;;;9.30;99.90;;;;;;5111089;27;20517;-43
2023/03/10 06:18:53;;;;;;;11.60;10.80;;;9.40;99.90;;;;;;5117662;27;20578;-48
2023/03/10 06:21:19;;;;;;;11.30;10.70;;;9.50;99.90;;;;;;5107562;27;20493;-44
2023/03/10 06:23:45;;;;;;;11.10;10.30;;;9.60;99.90;;;;;;5119855;27;20487;-42
2023/03/10 06:26:12;;;;;;;11.13;10.53;;;9.60;99.90;;;;;;5119936;27;20405;-41
2023/03/10 06:28:40;;;;;;;9.80;9.30;;;9.80;99.90;;;;;;5122360;27;20195;-43
2023/03/10 06:31:10;;;;;;;9.70;9.20;;;10.00;99.90;;;;;;5122628;27;20426;-43
2023/03/10 06:33:37;;;;;;;9.80;9.30;;;10.30;99.90;;;;;;5119686;27;20435;-42
2023/03/10 06:36:03;;;;;;;9.73;9.33;;;10.40;99.90;;;;;;5122335;27;20452;-42
2023/03/10 06:38:29;;;;;;;10.10;9.60;;;10.50;99.90;;;;;;5099234;27;20424;-44
2023/03/10 06:40:55;;;;;;;9.73;9.30;;;10.60;99.90;;;;;;5103907;27;20423;-41
2023/03/10 06:43:20;;;;;;;9.87;9.37;;;10.80;99.90;;;;;;5119900;27;20465;-41
2023/03/10 06:45:47;;;;;;;10.00;9.50;;;10.90;99.90;;;;;;5109487;27;20942;-43
2023/03/10 06:48:13;;;;;;;9.67;9.17;;;11.00;99.90;;;;;;5104715;27;20294;-46
2023/03/10 06:50:46;;;;;;;9.73;9.33;;;11.10;99.90;;;;;;5121305;27;20749;-42
2023/03/10 06:53:12;;;;;;;10.13;9.63;;;11.20;99.90;;;;;;5114819;27;20815;-45
2023/03/10 06:55:38;;;;;;;9.57;9.17;;;11.20;99.90;;;;;;5108638;27;21056;-42
2023/03/10 06:58:04;;;;;;;9.67;9.20;;;11.20;99.90;;;;;;5101701;27;20423;-41
2023/03/10 07:00:30;;;;;;;9.40;9.00;;;11.20;99.90;;;;;;5103281;27;20182;-44
2023/03/10 07:02:55;;;;;;;10.00;9.50;;;11.30;99.90;;;;;;5121201;27;20977;-43
2023/03/10 07:05:23;;;;;;;9.27;8.87;;;11.30;99.90;;;;;;5117711;27;20476;-42
2023/03/10 07:07:52;;;;;;;9.80;9.33;;;11.20;99.90;;;;;;5121111;27;20203;-41
2023/03/10 07:10:17;;;;;;;9.13;8.73;;;11.20;99.90;;;;;;5119731;27;20408;-44
2023/03/10 07:12:44;;;;;;;9.50;9.10;;;11.20;99.90;;;;;;5121223;27;20422;-45
2023/03/10 07:15:10;;;;;;;10.30;9.60;;;11.20;99.90;;;;;;5117573;27;20854;-47
2023/03/10 07:17:36;;;;;;;9.50;9.10;;;11.30;99.90;;;;;;5108217;27;20427;-41
2023/03/10 07:20:03;;;;;;;9.20;8.70;;;11.30;99.90;;;;;;5121093;27;20846;-41
2023/03/10 07:22:29;;;;;;;9.97;9.47;;;11.20;99.90;;;;;;5121163;27;20747;-45
2023/03/10 07:24:55;;;;;;;9.30;8.80;;;11.20;99.90;;;;;;5120804;27;20892;-41
2023/03/10 07:27:22;;;;;;;10.03;9.53;;;11.30;99.90;;;;;;5121045;27;20204;-41
2023/03/10 07:29:47;;;;;;;9.97;9.47;;;11.30;99.90;;;;;;5121092;27;20423;-41
2023/03/10 07:32:15;;;;;;;9.00;8.60;;;11.20;99.90;;;;;;5120960;27;20753;-43
2023/03/10 07:34:41;;;;;;;8.50;8.20;;;11.20;99.90;;;;;;5120896;27;20563;-43
2023/03/10 07:37:06;;;;;;;9.10;8.70;;;11.20;99.90;;;;;;5107601;27;20448;-44
2023/03/10 07:39:32;;;;;;;8.67;8.27;;;11.30;99.90;;;;;;5104943;27;20187;-43
2023/03/10 07:41:58;;;;;;;9.10;8.60;;;11.30;99.90;;;;;;5121146;27;20195;-41
2023/03/10 07:44:24;;;;;;;9.57;9.17;;;11.40;99.90;;;;;;5119535;27;20251;-43
2023/03/10 07:46:50;;;;;;;9.70;9.30;;;11.40;99.90;;;;;;5120613;27;20812;-40
2023/03/10 07:49:15;;;;;;;9.30;8.90;;;11.50;99.90;;;;;;5120392;27;20175;-45
2023/03/10 07:51:41;;;;;;;10.47;9.97;;;11.60;99.90;;;;;;5120580;27;20181;-47
2023/03/10 07:54:07;;;;;;;9.90;9.50;;;11.70;99.90;;;;;;5120405;27;20179;-40
2023/03/10 07:56:32;;;;;;;9.20;8.80;;;11.60;99.90;;;;;;5119624;27;20622;-43
2023/03/10 07:58:59;;;;;;;9.73;9.23;;;11.70;99.90;;;;;;5119896;27;20448;-44
2023/03/10 08:01:25;;;;;;;9.23;8.83;;;11.90;99.90;;;;;;5110684;27;20185;-45
2023/03/10 08:03:50;;;;;;;9.27;8.87;;;12.00;99.90;;;;;;5115639;27;20460;-44
2023/03/10 08:06:25;;;;;;;10.40;9.90;;;11.90;99.90;;;;;;5115084;27;20788;-43
2023/03/10 08:08:51;;;;;;;9.37;8.97;;;12.00;99.90;;;;;;5095575;27;20239;-47
2023/03/10 08:11:18;;;;;;;9.20;8.80;;;12.00;99.90;;;;;;5118517;27;20902;-44
2023/03/10 08:13:46;;;;;;;10.10;9.60;;;12.10;99.90;;;;;;5120080;27;21098;-46
2023/03/10 08:16:13;;;;;;;9.50;9.10;;;12.20;99.90;;;;;;5119826;27;20416;-45
2023/03/10 08:18:39;;;;;;;10.10;9.50;;;12.20;99.90;;;;;;5120158;27;20420;-45
2023/03/10 08:21:06;;;;;;;9.57;9.17;;;12.30;99.90;;;;;;5101688;27;20744;-45
2023/03/10 08:23:33;;;;;;;8.43;8.13;;;12.30;99.90;;;;;;5100782;28;20880;-42
2023/03/10 08:26:00;;;;;;;9.50;9.10;;;12.40;99.90;;;;;;5119861;27;20876;-47
2023/03/10 08:28:27;;;;;;;9.80;9.40;;;12.50;99.90;;;;;;5120147;27;20416;-44
2023/03/10 08:30:53;;;;;;;9.27;8.97;;;12.50;99.90;;;;;;5120118;27;20408;-41
2023/03/10 08:33:20;;;;;;;9.90;9.50;;;12.60;99.90;;;;;;5119562;27;20425;-41
2023/03/10 08:35:46;;;;;;;8.63;8.33;;;12.70;99.90;;;;;;5116423;28;20288;-42
2023/03/10 08:38:12;;;;;;;9.80;9.40;;;12.60;99.90;;;;;;5117943;28;20887;-42
2023/03/10 08:40:37;;;;;;;9.70;9.30;;;12.70;99.90;;;;;;5101485;28;20572;-43
2023/03/10 08:43:04;;;;;;;9.37;8.97;;;12.70;99.90;;;;;;5119672;28;21107;-44
2023/03/10 08:45:33;;;;;;;10.70;10.20;;;12.90;99.90;;;;;;5110450;28;20172;-45
2023/03/10 08:47:58;;;;;;;10.10;9.70;;;13.20;99.90;;;;;;5119030;28;20476;-45
2023/03/10 08:50:24;;;;;;;10.37;9.87;;;13.30;99.90;;;;;;5120506;28;20416;-44
2023/03/10 08:52:49;;;;;;;10.10;9.70;;;13.40;99.90;;;;;;5119388;28;20270;-43
2023/03/10 08:55:15;;;;;;;10.00;9.43;;;13.50;99.90;;;;;;5118235;28;20195;-45
2023/03/10 08:57:41;;;;;;;10.50;9.90;;;13.90;99.90;;;;;;5119769;28;20187;-43
2023/03/10 09:00:11;;;;;;;10.50;10.00;;;14.30;99.90;;;;;;5109675;28;20927;-44
2023/03/10 09:02:36;;;;;;;9.90;9.50;;;14.50;99.90;;;;;;5102301;28;20426;-45
2023/03/10 09:05:02;;;;;;;10.37;9.97;;;14.40;99.90;;;;;;5103871;28;20457;-46
2023/03/10 09:07:28;;;;;;;9.47;9.07;;;14.20;99.90;;;;;;5116681;28;20671;-43
2023/03/10 09:09:53;;;;;;;10.60;10.20;;;14.00;99.90;;;;;;5119981;28;20464;-42
2023/03/10 09:12:19;;;;;;;9.47;9.07;;;13.70;99.90;;;;;;5117957;28;20437;-44
2023/03/10 09:14:45;;;;;;;9.50;9.13;;;13.70;99.90;;;;;;5119522;28;20210;-42
2023/03/10 09:17:10;;;;;;;9.30;8.90;;;13.60;99.90;;;;;;5119926;28;20198;-42
2023/03/10 09:19:36;;;;;;;10.20;9.80;;;13.60;99.90;;;;;;5119307;28;20187;-45
2023/03/10 09:22:02;;;;;;;9.87;9.27;;;13.90;99.90;;;;;;5120769;27;20310;-42
2023/03/10 09:24:27;;;;;;;10.10;9.70;;;13.90;99.90;;;;;;5123500;27;20301;-45
2023/03/10 09:26:54;;;;;;;9.80;9.40;;;13.90;99.80;;;;;;5123294;27;20227;-47
2023/03/10 09:29:20;;;;;;;10.20;9.80;;;13.80;99.90;;;;;;5123485;27;20181;-43
2023/03/10 09:31:47;;;;;;;10.00;9.60;;;13.70;99.90;;;;;;5123116;27;20413;-45
2023/03/10 09:34:13;;;;;;;10.13;9.73;;;13.50;99.90;;;;;;5111095;27;20451;-46
2023/03/10 09:36:39;;;;;;;9.60;9.10;;;13.60;99.90;;;;;;5122915;27;20408;-42
2023/03/10 09:39:04;;;;;;;9.50;9.10;;;13.60;99.90;;;;;;5123169;27;20903;-43
2023/03/10 09:41:36;;;;;;;9.30;8.80;;;13.60;99.90;;;;;;5109765;27;20784;-42
2023/03/10 09:44:23;;;;;;;9.00;8.60;;;13.50;99.90;;;;;;5114081;27;20251;-42
2023/03/10 09:47:05;;;;;;;9.30;8.80;;;13.50;99.90;;;;;;5123065;27;20417;-46
2023/03/10 09:49:38;;;;;;;9.47;9.07;;;14.10;99.90;;;;;;5118499;27;20712;-44
2023/03/10 09:52:27;;;;;;;9.40;9.10;;;14.80;97.20;;;;;;5122931;27;20405;-46
2023/03/10 09:55:40;;;;;;;10.50;10.00;;;15.30;93.90;;;;;;5119537;27;20802;-48
2023/03/10 09:58:14;;;;;;;10.37;9.97;;;15.50;93.30;;;;;;5095950;27;21277;-45
2023/03/10 10:00:42;;;;;;;11.20;10.70;;;16.30;92.90;;;;;;5104027;27;20747;-45
2023/03/10 10:03:21;;;;;;;10.20;9.70;;;16.80;84.50;;;;;;5122743;27;20890;-45
2023/03/10 10:05:50;;;;;;;10.70;10.20;;;17.00;81.90;;;;;;5119521;27;20425;-49
2023/03/10 10:08:46;;;;;;;10.27;9.77;;;17.20;84.30;;;;;;5122659;27;20447;-47
2023/03/10 10:11:16;;;;;;;10.17;9.77;;;17.80;77.60;;;;;;5122458;27;20695;-43
2023/03/10 10:13:42;;;;;;;9.93;9.43;;;18.10;73.90;;;;;;5109415;27;20417;-44
2023/03/10 10:16:25;;;;;;;10.43;10.00;;;17.80;67.60;;;;;;5122473;27;20412;-46
2023/03/10 10:19:15;;;;;;;10.40;9.97;;;18.00;66.30;;;;;;5122258;27;20194;-43
2023/03/10 10:21:59;;;;;;;10.50;10.00;;;17.70;64.40;;;;;;5121874;27;20422;-44
2023/03/10 10:24:24;;;;;;;10.70;10.27;;;17.40;67.60;;;;;;5112195;27;20982;-49
2023/03/10 10:26:50;;;;;;;10.23;9.83;;;17.30;68.10;;;;;;5122690;27;20420;-46
2023/03/10 10:29:22;;;;;;;10.07;9.67;;;16.50;70.80;;;;;;5122560;27;20183;-47
2023/03/10 10:32:09;;;;;;;10.10;9.70;;;16.60;70.80;;;;;;5122222;27;20960;-43
2023/03/10 10:34:41;;;;;;;9.80;9.40;;;16.50;71.20;;;;;;5121485;27;20845;-44
2023/03/10 10:37:31;;;;;;;10.93;10.43;;;16.70;72.30;;;;;;5122136;27;20417;-44
2023/03/10 10:39:59;;;;;;;10.30;9.90;;;16.10;74.20;;;;;;5097991;27;20440;-44
2023/03/10 10:42:31;;;;;;;10.60;10.10;;;15.80;74.80;;;;;;5113826;27;20728;-47
2023/03/10 10:45:25;;;;;;;10.10;9.70;;;15.80;72.90;;;;;;5102974;27;21234;-47
2023/03/10 10:47:54;;;;;;;11.33;10.83;;;15.80;74.60;;;;;;5121696;27;20943;-43
2023/03/10 10:50:21;;;;;;;9.80;9.40;;;15.80;73.00;;;;;;5121390;27;20420;-43
2023/03/10 10:52:49;;;;;;;10.80;10.20;;;15.70;72.50;;;;;;5117063;27;20452;-43
2023/03/10 10:55:28;;;;;;;9.17;8.77;;;16.00;73.50;;;;;;5111612;27;20941;-44
2023/03/10 10:58:00;;;;;;;8.70;8.30;;;16.20;70.20;;;;;;5121946;27;20443;-48
2023/03/10 11:00:27;;;;;;;9.23;8.83;;;15.70;72.00;;;;;;5108833;27;20483;-44
2023/03/10 11:02:54;;;;;;;9.13;8.83;;;15.50;74.40;;;;;;5121487;27;20424;-45
2023/03/10 11:05:30;;;;;;;9.00;8.60;;;15.50;76.10;;;;;;5117239;27;20477;-45
2023/03/10 11:08:08;;;;;;;9.53;9.13;;;15.40;76.90;;;;;;5121458;27;20507;-43
2023/03/10 11:10:36;;;;;;;8.93;8.57;;;15.40;77.70;;;;;;5121293;27;20477;-49
2023/03/10 11:13:15;;;;;;;8.87;8.57;;;15.00;78.50;;;;;;5121284;27;20405;-45
2023/03/10 11:16:12;;;;;;;8.83;8.43;;;14.60;82.00;;;;;;5119604;27;20412;-47
2023/03/10 11:18:51;;;;;;;9.30;8.90;;;14.60;84.80;;;;;;5119154;27;20917;-44
2023/03/10 11:21:28;;;;;;;9.30;8.90;;;14.60;85.60;;;;;;5121272;27;20865;-43
2023/03/10 11:24:19;;;;;;;9.17;8.77;;;14.40;86.40;;;;;;5117308;27;20463;-44
2023/03/10 11:27:06;;;;;;;8.60;8.23;;;14.30;87.70;;;;;;5112782;27;20456;-47
2023/03/10 11:29:53;;;;;;;8.93;8.53;;;14.40;90.30;;;;;;5121338;27;20649;-44
2023/03/10 11:32:28;;;;;;;8.83;8.43;;;14.60;89.10;;;;;;5120433;27;20416;-46
2023/03/10 11:34:54;;;;;;;8.83;8.30;;;14.70;89.20;;;;;;5121312;27;20908;-45
2023/03/10 11:37:38;;;;;;;8.50;8.17;;;14.90;88.40;;;;;;5120832;27;20451;-50
2023/03/10 11:40:27;;;;;;;8.80;8.40;;;15.00;88.60;;;;;;5121294;27;20571;-48
2023/03/10 11:43:14;;;;;;;8.27;7.97;;;15.20;84.50;;;;;;5119505;27;20412;-46
2023/03/10 11:45:51;;;;;;;9.03;8.63;;;15.40;81.80;;;;;;5107041;27;20416;-49
2023/03/10 11:48:19;;;;;;;9.60;9.00;;;15.50;79.60;;;;;;5101790;27;20416;-47
2023/03/10 11:50:51;;;;;;;9.30;8.83;;;15.80;78.00;;;;;;5120120;27;21203;-44
2023/03/10 11:53:42;;;;;;;10.37;9.87;;;15.50;78.20;;;;;;5115803;27;20429;-46
2023/03/10 11:56:11;;;;;;;9.00;8.60;;;15.50;78.60;;;;;;5114268;27;20409;-43
2023/03/10 11:58:59;;;;;;;9.50;9.10;;;15.40;80.90;;;;;;5102061;27;20420;-45
2023/03/10 12:01:43;;;;;;;10.00;9.50;;;15.60;79.50;;;;;;5104294;27;20926;-46
2023/03/10 12:04:17;;;;;;;10.13;9.63;;;15.50;76.00;;;;;;5109643;27;20508;-46
2023/03/10 12:07:04;;;;;;;10.07;9.57;;;15.40;76.90;;;;;;5120338;27;20996;-44
2023/03/10 12:09:52;;;;;;;9.30;8.90;;;15.70;77.80;;;;;;5112873;27;20469;-44
2023/03/10 12:12:26;;;;;;;9.20;8.80;;;15.80;73.30;;;;;;5119895;27;20404;-44
2023/03/10 12:14:52;;;;;;;9.03;8.63;;;16.10;73.10;;;;;;5120361;27;20408;-47
2023/03/10 12:17:18;;;;;;;9.73;9.13;;;16.80;67.40;;;;;;5119224;27;20420;-46
2023/03/10 12:20:11;;;;;;;9.47;9.07;;;16.60;67.00;;;;;;5117528;27;20779;-46
2023/03/10 12:22:40;;;;;;;8.93;8.50;;;17.20;67.00;;;;;;5119437;27;21036;-44
2023/03/10 12:25:36;;;;;;;9.10;8.70;;;17.60;63.10;;;;;;5106893;27;21130;-45
2023/03/10 12:28:18;;;;;;;9.00;8.60;;;17.60;62.30;;;;;;5115907;27;20707;-44
2023/03/10 12:30:51;;;;;;;9.47;9.07;;;17.20;62.00;;;;;;5101450;27;20427;-52
2023/03/10 12:33:29;;;;;;;9.20;8.80;;;17.00;65.50;;;;;;5119810;27;20504;-46
2023/03/10 12:36:00;;;;;;;9.30;8.90;;;16.30;64.30;;;;;;5116646;28;20416;-48
2023/03/10 12:38:30;;;;;;;7.90;7.60;;;15.60;67.60;;;;;;5101234;28;20958;-47
2023/03/10 12:40:56;;;;;;;8.57;8.17;;;15.40;69.90;;;;;;5119830;28;20416;-44
2023/03/10 12:43:37;;;;;;;8.33;7.93;;;15.10;73.10;;;;;;5119671;28;20507;-44
2023/03/10 12:46:08;;;;;;;8.47;7.90;;;15.10;75.20;;;;;;5120786;28;20411;-43
2023/03/10 12:48:39;;;;;;;8.90;8.40;;;14.90;74.10;;;;;;5119763;28;20702;-43
2023/03/10 12:51:12;;;;;;;9.17;8.70;;;15.10;75.40;;;;;;5101231;28;21064;-45